vrijdag 19 januari 2018 | Home | Bestenlijsten | Nieuws | Uitslagen | Videos | Wedstrijden | VZA Ranglijsten | Weer |
 
 
Recent nieuws meer nieuws
31-12: Erwin Harmes en Marlies Kort domineren Tankloop
30-12: Yunis Stitan verrassende winnaar van 47e Kerstloop
23-12: Oegandees Aggrey Agaba wint 18e Aagtekerkerun
22-12: De beste stuurlui staan aan wal
21-12: Verslag van de 18e Aagtekerkerun
11-12: De ene crosser is de andere niet
Wedstrijdagenda meer wedstrijden
za 20-01: 1e Dow trimloop Terneuzen
za 27-01: 4e Scheldesport cross Westdorpe
za 27-01: Eugene Vink Memorial Westdorpe
za 03-02: 20e Rammekensloop Ritthem
za 03-02: Berlaerloop Koewacht
zo 04-02: Midwinter Marathon Apeldoorn
zo 04-02: 27e Midwinter Halve Marathon Cadzand
za 10-02: Erpelkappersloop Axel
za 10-02: 24e Grevelingen cross Bruinisse
zo 11-02: 41e Groet uit Schoorl Run
za 17-02: 13e Zwaarste 10 van Zeeland Westenschouwen
za 17-02: 25 km Scheldeloop Terneuzen
zo 18-02: 7e Kapellecross Kapelle-Biezelinge
Recente uitslagen meer uitslagen
za 13-01: 46e Deltacross Westenschouwen (247)
za 13-01: 20e Steense Rattenloop Sint Jansteen (123)
zo 07-01: Scheidsrechtersloop Vlissingen (98)
za 06-01: 57e Wallenloop Goes (134)
za 06-01: Jeff Thuy Memorial Heikant (211)
vr 05-01: Ondoloop Sint Laurens (56)
zo 31-12: Tankloop Westkapelle (418)
zo 31-12: 2e Natuurloop Nieuwvliet (103)
za 30-12: Eindejaarscross Axel (217)
di 26-12: Kerstloop Dishoek (606)
za 16-12: Kriekeloop Clinge (110)
za 16-12: Stratenloop Menheerse Middelharnis
za 16-12: 18e Aagtekerke Run (458)
zo 10-12: Jules Unlimitedloop Breskens (50)
za 09-12: Halve Marathon Terneuzen (142)
 
Zoek tenminste met 3 tekens van wedstrijd, datum, plaats of atleet
56e Wallenloop
Goes, zaterdag 7 januari 2017 - Organisatie: AV'56
7.44 km
PltsNaam
Tijdkm/umin/km
1  Tim van de VeldeDuffel23.06JoB   19.325  3:06
2  Maarten de NysDuffel23.41Mse   18.849  3:11
3  Erwin AdanDynamica23.55Mse   18.665  3:13
4  Patrick de VosAV'5624.07Mse   18.510  3:14
5  Erwin HarmesGonzalez Running24.32M35   18.196  3:18
6  Joachim PoortmansDuffel24.44M35   18.049  3:19
7  Ronnie OvergaauwDynamica24.50Mse   17.976  3:20
8  Jurgen TorfsDuffel25.37M35   17.426  3:27
9  Glenn LeysDuffel25.57JoA   17.202  3:29
10  Rens de RidderDynamica26.14JoA   17.017  3:32
11  Crum van der LindenDynamica26.20Mse   16.952  3:32
12  Boris de BruijnAV'5626.24Mse   16.909  3:33
13  Arjo VerhageDynamica26.58M45   16.554  3:37
14  Jordi BotAV'5627.41JoA   16.125  3:43
15  Peter van LimbergenAV'5628.12M40   15.830  3:47
16  Johan KarelseHeinkenszand28.19M40   15.765  3:48
17  John SlabbekoornKapelle-Biezelinge28.26M50   15.700  3:49
18  Frank HouwelingAV'5628.44M40   15.536  3:52
19  Jan de WildeAV'5628.56M55   15.429  3:53
20  Jan-Kees KooleAV'5628.59Mse   15.402  3:54
21  Monique VerschuureAV'5629.01V35   15.384  3:54
22  Jozias BooneGoes29.04Mse   15.358  3:54
23  Rini BruggemanAV'5629.06M50   15.340  3:55
24  Michel BekinkAV'5629.19M40   15.227  3:56
25  Bart BalkenendeAV'5629.21JoA   15.210  3:57
26  Mirthe OverkampMiddelburg29.50Vse   14.963  4:01
27  Jan ProvoostKapelle-Biezelinge29.53M35   14.938  4:01
28  Jan JoosseKapelle-Biezelinge29.56M45   14.913  4:01
29  Jan Willem MeeuwseAV'5629.58M50   14.897  4:02
30  Berry SimonseAV'5630.07M45   14.822  4:03
31  Rinus van de WoestijneMiddelburg30.10M35   14.798  4:03
32  Monica SanderseDynamica30.25Vse   14.676  4:05
33  Reinier SpijkGoes30.34M35   14.604  4:07
34  Gerben van der BliekGoes30.46M35   14.509  4:08
35  Gijsbert ElstgeestAV'5630.59M35   14.408  4:10
36  Leon van KruiningenGoes31.03Mse   14.377  4:10
37  Henk LousDynamica31.17M55   14.270  4:12
38  Marco van den BoogaardGoes31.28M45   14.186  4:14
39  Andre MeijersAV'5631.33M45   14.149  4:14
40  Rick de SmitGoes31.37Mse   14.119  4:15
41  Jeroen SteendijkGoes31.41Mse   14.089  4:16
42  John OverweelDynamica31.55M65   13.986  4:17
43  David WalterDusseldorp32.16M35   13.835  4:20
44  Alex Traass-Heer Arendskerke32.31Mse   13.728  4:22
45  William de JongeNieuwdorp32.34M45   13.707  4:23
46  Robin de VriendHansweert32.37Mse   13.686  4:23
47  Gertjan BakkerAV'5632.39M45   13.672  4:23
48  Leon VermeulenWemeldinge32.44M35   13.637  4:24
49  Co de FeijterDelta Sport33.02M50   13.514  4:26
50  Rinus PaardekooperAV'5633.39M55   13.266  4:31
51  Rene GoetheerWolphaartsdijk33.53M45   13.175  4:33
52  Jordan LangeveldeKruiningen34.02Mse   13.117  4:34
53  Jan KrijnsenGoes34.02M45   13.117  4:34
54  Eric van RemortelAV'5634.05M55   13.097  4:35
55  Saskia GooleAV'5634.13V45   13.046  4:36
56  Johan SpruitKapelle-Biezelinge34.17Mse   13.021  4:36
57  Michael Willemses-Heer Arendskerke34.21Mse   12.996  4:37
58  Ron DellebekeDynamica34.24M55   12.977  4:37
59  Martin RegtAV'5634.49Mse   12.821  4:41
60  Remi AnthonisseKloetinge34.51Mse   12.809  4:41
61  Ramon AnthonisseKloetinge34.59Mse   12.760  4:42
62  Sjaak Dekkers-Heerenhoek35.03M55   12.736  4:43
63  Marcel van GilstAV'5635.10M45   12.694  4:44
64  Dick KikKrabbendijke35.19M55   12.640  4:45
65  John van NunenWolphaartsdijk35.20M40   12.634  4:45
66  Ruud FredriksAV'5635.25M60   12.604  4:46
67  Peter Dijkwels-Heer Arendskerke35.27M45   12.592  4:46
68  Acronius KramerAV'5635.29M60   12.581  4:46
69  Boudewijn BeusmansVoorburg35.31M35   12.569  4:46
70  Wim RooseAart Stigter35.34M65   12.551  4:47
71  Marc-Jan MoerlandGoes35.36Mse   12.539  4:47
72  Matthijs van de DriesHeinkenszand35.38Mse   12.528  4:47
73  Andre KramerYerseke35.46M45   12.481  4:48
74  Laurens JobseGoes35.49Mse   12.463  4:49
75  Edwin van WelKloetinge35.57Mse   12.417  4:50
76  Ludo VermeulenLewedorp35.59Mse   12.406  4:50
77  Corne van LomwelOost-Souburg36.02M45   12.389  4:51
78  Paul JeremiasseKloetinge36.05Mse   12.371  4:51
79  Mark BouterseKapelle-Biezelinge36.12H20   12.331  4:52
80  Bram van EenennaamNieuw- en Sint Joosland36.17M55   12.303  4:53
81  Robert SteendijkRotterdam36.20Mse   12.286  4:53
82  Josa van der VlietScheldesport36.22V45   12.275  4:53
83  Maurice SteketeeMiddelburg36.25M35   12.258  4:54
84  Niek van BelzenArnemuiden36.51M45   12.114  4:57
85  Claudia van SighemWestkapelle37.05V45   12.038  4:59
86  Christine BalkenendeAV'5637.09V50   12.016  5:00
87  Stefan van den DriesAV'5637.17Mse   11.973  5:01
88  John GuequierreDynamica37.35M65   11.878  5:03
89  Andre de KoningGoes37.43M55   11.836  5:04
90  Wendy TheuneDynamica38.06V40   11.717  5:07
91  Marjolein BeusmansVoorburg38.18V35   11.655  5:09
92  Piet VerwijsGoes38.20M65   11.645  5:09
93  Jeroen van GentGoes38.24M35   11.625  5:10
94  Chris van AntwerpenAV'5638.26M35   11.615  5:10
95  Debby ElstgeestAV'5638.30V35   11.595  5:10
96  Jan van de VijverDuffel38.58M35   11.456  5:14
97  Anita VeldhofAV'5639.02Vse   11.436  5:15
98  Arthur StijnsDynamica39.04M65   11.427  5:15
99  Ineke TempelaarDynamica39.18V55   11.359  5:17
100  Danny van 't WesteindeGoes39.21M35   11.344  5:17
101  Everdien VermeulenKloetinge39.27V45   11.316  5:18
102  Ko de VisserSchore39.52M55   11.197  5:22
103  Jan DaleboutKapelle-Biezelinge40.25M55   11.045  5:26
104  Rene VerhulstGoes40.48M55   10.941  5:29
105  Lenie van KlevenVlissingen41.31V60   10.752  5:35
106  Kees van den PolGoes41.58M65   10.637  5:38
107  Wouter de BruijnAV'5642.21Mse   10.541  5:42
108  Jaap OeleKapelle-Biezelinge43.50M65   10.184  5:53
109  Ria FredriksAV'5644.17V45   10.081  5:57
110  Nick van EenennaamOost-Souburg44.31Mse   10.028  5:59
111  Hans BalGoes44.43M65   9.983  6:01
112  Marian van den BoogaardGoes45.11V45   9.880  6:04
113  Jacqueline de BondtGoes45.14V45   9.869  6:05
114  Ylja van IwaardenAV'5648.56Vse   9.123  6:35
115  Chantal Verhoevens-Gravenpolder50.21V35   8.866  6:46
Mannen: 91 (79.13%) => H20=1 - M35=16 - M40=5 - M45=14 - M50=4 - M55=12 - M60=2 - M65=8 - Mse=29
Vrouwen: 19 (16.52%) => V35=4 - V40=1 - V45=7 - V50=1 - V55=1 - V60=1 - Vse=4
Jongens: 5 (4.35%) => JoA=4 - JoB=1

Overzicht Top3, winnares en aantal deelnemers in eerdere jaren

JaarWinnaarTijd2eTijd 3eTijdWinnaresTijd#
2018Erwin Harmes23:26Patrick de Vos23:59Tim van der Broeke24:11Monique Verschuure27:25134
2017Tim van de Velde23:06Maarten de Nys23:41Erwin Adan23:55Monique Verschuure29:01115
2016Tim van de Velde23:42Maarten De Nys23:42Erwin Harmes23:45Annet van der Linde31:34105
2015Tim Pleijte22:47Erwin Harmes23:56Maarten De Nys24:14Monique Verschuure28:59155
2014Stein Van Es23:42Erwin Harmes23:46Mitchel van der Steen24:46Margriet Beekman-Rotte30:49137
2013Dieter Vanstreels22:38Emmanuel Loverie23:49Tommy Staal24:06Marianne de Kok29:08135
2012Maarten Mortelmans23:59Neal Bouterse24:27Willem de Korte27:06Paola van Gilst33:31106
2011Dieter Vanstreels23:29Roy Van Son23:35Jeroen Maas23:45Saskia Goole32:33102
2009Dieter Vanstreels23:39Bart Verschoren23:56Maarten Mortelmans24:07Astrid den Herder32:2783
2008Stein Van Es23:44Tim Pleijte23:49Bart Verschoren24:32Astrid den Herder32:0786
2007Bart Verschoren24:11Michel Schrier25:20Stein van Es25:36Leonie Ton31:3473
2006Bart Verschoren23:53Loic Helin24:43Ruud Woord25:07Marianne de Kok29:1797
2005Bart Verschoren23:29Ben Quintelier24:39Alex Storms24:45Andere afstand43
2004Bart Verschoren24:01Alex Storms24:13Ruud Woord24:17Andere afstand56
2003Bart Verschoren24:14Joost de Klerk24:30Alwin Vermeulen24:35Andere afstand21
2002Bart Verschoren23:33Ruben Scheurwater24:04Alex Storms24:21Andere afstand74
2001Armand van der Smissen22:58Jeroen Punt23:46Bart Verschoren24:11Andere afstand21
2000Jeroen Punt23:36Bart Verschoren24:22Alwin Vermeulen24:27Andere afstand3
1999Dennis Klasen23:33Koen Raymaekers23:53Niels Koole24:18Andere afstand3
1998John Vermeule23:12Rachid Ben Meziane23:31Raf Peeters24:02Andere afstand3
1997John Vermeule23:07Benny Ceulemans23:24Raf Peeters23:31Andere afstand3
1995Mauricio Gonzalez22:23Theo van den Abeele22:30Robin Punt22:41Andere afstand3
1994Robin Punt22:21Dennis Klasen22:38Erik Punt22:51Andere afstand31
1993Erik Punt22:34Hans van de Griendt22:59Robin Punt23:13Andere afstand3
1992Raf Wyns21:55Michel de Maat22:22Rudi Cock22:37Andere afstand3
1991Michel de Maat23:09Domien Brandsma23:20Hans van de Griendt23:26Andere afstand3
1990Geert Bouton23:00Leon van der Velden23:03Rian van den Broeke23:21Andere afstand3
1989Geert Bouton22:58Leon van der Velden23:04Marc Nevens23:22Andere afstand55
1988Jo Slagmolen22:54Leon van der Velden22:56Erik Punt23:16Andere afstand3
1987Leon van der Velden22:51Frank Kooman23:25Hans van Voorden23:26Andere afstand3
1986Dave Cameron22:43Frank Kooman23:23Leon van der Velden23:27Andere afstand3
1985Johan de Vlieger24:04Albert Karstanje24:09Frans Krijnsen24:11Andere afstand42
1984Luc Wijns22:18Thomas Langhammer22:40Aart Stigter23:06Andere afstand3
1983Luc Wijns22:24Kim Reijnierse22:55Huib Dalebout23:17Andere afstand3
1982Marc Nevens23:24John Vermeule23:42Piet Vonck23:47Andere afstand3
1981Marc Nevens23:00Jan de Bart23:26Kim Reijnierse23:34Andere afstand3
1980Marc Nevens22:51Dirk Geens23:27R. Blocks23:45Andere afstand3
1979Harry Patist23:16Dirk Geens23:34Johan Antheunisse23:42Andere afstand3
1978Marc Smet22:01Piet Vonck22:35Marc Nevens22:42Andere afstand3
1977Marc Smet22:42Marc Nevens23:08A. Vidas24:05Andere afstand3
1976Marc Nevens22:34Marien van Prooyen23:32Andre Boonen23:47Andere afstand3
1975Marien van Prooyen23:33K. van der Heul23:41Johan Antheunisse23:49Andere afstand39
1974Piet Vonck22:45J. Brands24:01J. van Eekelen24:22Andere afstand16
1973Piet Vonck22:54Kees van Dalen23:21H. van Kasteren23:33Andere afstand29


Snelheid en tempo zijn berekend op de vermelde afstand. Bij een onjuiste afstand wijken deze uiteraard af!

Fouten melden via info@atletiekzeeland.nl Categorie fout? Mail dan geboortedatum. (geldt alleen voor Zeeuwen)

De server had 0.242 seconden nodig om deze lijst met 115 prestaties samen te stellen.

Terug naar boven

Vorige uitslagen
DatumWedstrijdPlaatsVereniging Hits
06-01-2018 57e WallenloopGoesAV'560
09-01-2016 55e WallenloopGoesAV'561473
03-01-2015 54e WallenloopGoesAV'561612
04-01-2014 53e WallenloopGoesAV'562124
05-01-2013 52e WallenloopGoesAV'561775
07-01-2012 51e WallenloopGoesAV'562296
08-01-2011 50e WallenloopGoesAV'562640
03-01-2009 48e WallenloopGoesAV'561324
05-01-2008 47e WallenloopGoesAV'561410
06-01-2007 46e WallenloopGoesAV'561263
07-01-2006 45e WallenloopGoesAV'561028
08-01-2005 44e WallenloopGoesAV'56883
03-01-2004 43e WallenloopGoesAV'561060
03-01-2003 41e WallenloopGoesAV'56104
05-01-2002 40e WallenloopGoesAV'56154
06-01-2001 39e WallenloopGoesAV'56123
08-01-2000 38e WallenloopGoesAV'56106
02-01-1999 37e WallenloopGoesAV'5697
03-01-1998 36e WallenloopGoesAV'56139
04-01-1997 35e WallenloopGoesAV'56123
07-01-1995 34e WallenloopGoesAV'56113
08-01-1994 33e WallenloopGoesAV'56113
02-01-1993 32e WallenloopGoesAV'56135
04-01-1992 31e WallenloopGoesAV'56127
05-01-1991 30e WallenloopGoesAV'56113
06-01-1990 29e WallenloopGoesAV'56122
07-01-1989 28e WallenloopGoesAV'56138
09-01-1988 27e WallenloopGoesAV'56137
03-01-1987 26e WallenloopGoesAV'56114
04-01-1986 25e WallenloopGoesAV'56113
05-01-1985 24e WallenloopGoesAV'56175
07-01-1984 23e WallenloopGoesAV'56137
02-01-1983 22e WallenloopGoesAV'56104
09-01-1982 21e WallenloopGoesAV'56116
03-01-1981 20e WallenloopGoesAV'56122
05-01-1980 19e WallenloopGoesAV'56130
06-01-1979 18e WallenloopGoesAV'56121
07-01-1978 17e WallenloopGoesAV'56126
08-01-1977 16e WallenloopGoesAV'56124
10-01-1976 15e WallenloopGoesAV'56133
04-01-1975 14e WallenloopGoesAV'56123
05-01-1974 13e WallenloopGoesAV'56108
06-01-1973 12e WallenloopGoesAV'56139

 
Recente Zeeuwse prestaties meer prestaties
14-01: 46e Halve van Egmond (14)
17-12: 12e Spark marathon Spijkenisse (11)
26-11: Halve Marathon Tarragona (1)
26-11: Firenze Marathon Florence (4)
Recente video(s)
Atletiek Zeeland © 2018